sensor_id;sensor_type;location;lat;lon;timestamp;P1;durP1;ratioP1;P2;durP2;ratioP2
52414;SDS011;38340;52.964;6.086;2022-10-16T00:01:17;7.88;;;3.05;;
52414;SDS011;38340;52.964;6.086;2022-10-16T00:03:46;8.57;;;2.55;;
52414;SDS011;38340;52.964;6.086;2022-10-16T00:06:13;6.72;;;2.60;;
52414;SDS011;38340;52.964;6.086;2022-10-16T00:08:40;4.40;;;2.38;;
52414;SDS011;38340;52.964;6.086;2022-10-16T00:11:07;6.35;;;2.25;;
52414;SDS011;38340;52.964;6.086;2022-10-16T00:13:58;5.90;;;2.83;;
52414;SDS011;38340;52.964;6.086;2022-10-16T00:16:25;5.35;;;2.50;;
52414;SDS011;38340;52.964;6.086;2022-10-16T00:18:51;8.25;;;2.42;;
52414;SDS011;38340;52.964;6.086;2022-10-16T00:21:22;11.02;;;2.88;;
52414;SDS011;38340;52.964;6.086;2022-10-16T00:23:50;5.43;;;2.30;;
52414;SDS011;38340;52.964;6.086;2022-10-16T00:26:17;7.28;;;2.63;;
52414;SDS011;38340;52.964;6.086;2022-10-16T00:28:47;6.95;;;2.30;;
52414;SDS011;38340;52.964;6.086;2022-10-16T00:31:15;6.68;;;2.63;;
52414;SDS011;38340;52.964;6.086;2022-10-16T00:33:42;6.10;;;2.10;;
52414;SDS011;38340;52.964;6.086;2022-10-16T00:36:10;7.43;;;2.47;;
52414;SDS011;38340;52.964;6.086;2022-10-16T00:38:37;8.43;;;2.53;;
52414;SDS011;38340;52.964;6.086;2022-10-16T00:41:03;7.28;;;2.50;;
52414;SDS011;38340;52.964;6.086;2022-10-16T00:43:40;6.28;;;2.60;;
52414;SDS011;38340;52.964;6.086;2022-10-16T00:46:11;5.78;;;2.15;;
52414;SDS011;38340;52.964;6.086;2022-10-16T00:48:38;5.65;;;2.38;;
52414;SDS011;38340;52.964;6.086;2022-10-16T00:51:04;5.20;;;2.03;;
52414;SDS011;38340;52.964;6.086;2022-10-16T00:53:32;11.13;;;2.85;;
52414;SDS011;38340;52.964;6.086;2022-10-16T00:55:58;7.38;;;2.40;;
52414;SDS011;38340;52.964;6.086;2022-10-16T00:58:24;4.78;;;2.30;;
52414;SDS011;38340;52.964;6.086;2022-10-16T01:00:50;7.00;;;3.03;;
52414;SDS011;38340;52.964;6.086;2022-10-16T01:03:23;9.23;;;2.67;;
52414;SDS011;38340;52.964;6.086;2022-10-16T01:05:54;5.32;;;2.45;;
52414;SDS011;38340;52.964;6.086;2022-10-16T01:08:41;4.65;;;2.30;;
52414;SDS011;38340;52.964;6.086;2022-10-16T01:11:21;8.63;;;2.60;;
52414;SDS011;38340;52.964;6.086;2022-10-16T01:13:55;5.88;;;2.55;;
52414;SDS011;38340;52.964;6.086;2022-10-16T01:16:31;11.43;;;2.58;;
52414;SDS011;38340;52.964;6.086;2022-10-16T01:19:09;6.10;;;2.75;;
52414;SDS011;38340;52.964;6.086;2022-10-16T01:21:44;10.50;;;3.03;;
52414;SDS011;38340;52.964;6.086;2022-10-16T01:27:09;6.72;;;2.65;;
52414;SDS011;38340;52.964;6.086;2022-10-16T01:30:12;7.47;;;2.33;;
52414;SDS011;38340;52.964;6.086;2022-10-16T01:35:35;9.38;;;3.25;;
52414;SDS011;38340;52.964;6.086;2022-10-16T01:40:32;8.57;;;2.53;;
52414;SDS011;38340;52.964;6.086;2022-10-16T01:43:14;5.22;;;2.60;;
52414;SDS011;38340;52.964;6.086;2022-10-16T01:45:44;4.30;;;2.90;;
52414;SDS011;38340;52.964;6.086;2022-10-16T01:48:12;4.10;;;2.67;;
52414;SDS011;38340;52.964;6.086;2022-10-16T01:50:41;6.75;;;2.35;;
52414;SDS011;38340;52.964;6.086;2022-10-16T01:53:11;7.65;;;2.92;;
52414;SDS011;38340;52.964;6.086;2022-10-16T01:55:40;3.95;;;2.47;;
52414;SDS011;38340;52.964;6.086;2022-10-16T01:58:11;5.70;;;2.47;;
52414;SDS011;38340;52.964;6.086;2022-10-16T02:00:39;6.28;;;2.75;;
52414;SDS011;38340;52.964;6.086;2022-10-16T02:03:08;7.38;;;2.40;;
52414;SDS011;38340;52.964;6.086;2022-10-16T02:05:38;5.70;;;2.85;;
52414;SDS011;38340;52.964;6.086;2022-10-16T02:08:08;6.93;;;2.55;;
52414;SDS011;38340;52.964;6.086;2022-10-16T02:10:35;4.57;;;2.65;;
52414;SDS011;38340;52.964;6.086;2022-10-16T02:13:07;5.97;;;2.65;;
52414;SDS011;38340;52.964;6.086;2022-10-16T02:15:37;8.55;;;2.83;;
52414;SDS011;38340;52.964;6.086;2022-10-16T02:18:04;7.45;;;2.60;;
52414;SDS011;38340;52.964;6.086;2022-10-16T02:20:43;5.53;;;2.80;;
52414;SDS011;38340;52.964;6.086;2022-10-16T02:23:22;6.00;;;3.20;;
52414;SDS011;38340;52.964;6.086;2022-10-16T02:25:55;6.30;;;2.90;;
52414;SDS011;38340;52.964;6.086;2022-10-16T02:28:24;10.50;;;2.80;;
52414;SDS011;38340;52.964;6.086;2022-10-16T02:31:02;3.95;;;2.80;;
52414;SDS011;38340;52.964;6.086;2022-10-16T02:33:30;4.13;;;2.80;;
52414;SDS011;38340;52.964;6.086;2022-10-16T02:35:58;8.80;;;2.90;;
52414;SDS011;38340;52.964;6.086;2022-10-16T02:38:24;4.15;;;2.70;;
52414;SDS011;38340;52.964;6.086;2022-10-16T02:40:51;6.82;;;2.85;;
52414;SDS011;38340;52.964;6.086;2022-10-16T02:43:17;8.05;;;3.35;;
52414;SDS011;38340;52.964;6.086;2022-10-16T02:45:43;8.02;;;3.08;;
52414;SDS011;38340;52.964;6.086;2022-10-16T02:48:09;7.68;;;2.88;;
52414;SDS011;38340;52.964;6.086;2022-10-16T02:50:34;10.23;;;3.00;;
52414;SDS011;38340;52.964;6.086;2022-10-16T02:53:00;5.32;;;2.72;;
52414;SDS011;38340;52.964;6.086;2022-10-16T02:55:26;4.72;;;2.60;;
52414;SDS011;38340;52.964;6.086;2022-10-16T02:57:53;8.02;;;3.10;;
52414;SDS011;38340;52.964;6.086;2022-10-16T03:00:19;5.47;;;2.42;;
52414;SDS011;38340;52.964;6.086;2022-10-16T03:02:45;5.43;;;2.50;;
52414;SDS011;38340;52.964;6.086;2022-10-16T03:05:12;4.93;;;2.72;;
52414;SDS011;38340;52.964;6.086;2022-10-16T03:07:38;7.95;;;2.83;;
52414;SDS011;38340;52.964;6.086;2022-10-16T03:10:03;3.90;;;2.50;;
52414;SDS011;38340;52.964;6.086;2022-10-16T03:12:30;4.28;;;2.90;;
52414;SDS011;38340;52.964;6.086;2022-10-16T03:14:55;6.28;;;2.70;;
52414;SDS011;38340;52.964;6.086;2022-10-16T03:17:22;6.15;;;2.72;;
52414;SDS011;38340;52.964;6.086;2022-10-16T03:19:48;9.05;;;2.38;;
52414;SDS011;38340;52.964;6.086;2022-10-16T03:22:14;6.70;;;2.50;;
52414;SDS011;38340;52.964;6.086;2022-10-16T03:24:39;5.13;;;2.78;;
52414;SDS011;38340;52.964;6.086;2022-10-16T03:27:05;6.28;;;2.60;;
52414;SDS011;38340;52.964;6.086;2022-10-16T03:29:31;7.05;;;2.67;;
52414;SDS011;38340;52.964;6.086;2022-10-16T03:31:58;4.63;;;2.10;;
52414;SDS011;38340;52.964;6.086;2022-10-16T03:34:24;4.43;;;2.58;;
52414;SDS011;38340;52.964;6.086;2022-10-16T03:36:50;6.63;;;3.78;;
52414;SDS011;38340;52.964;6.086;2022-10-16T03:39:16;4.45;;;2.10;;
52414;SDS011;38340;52.964;6.086;2022-10-16T03:41:42;5.90;;;2.38;;
52414;SDS011;38340;52.964;6.086;2022-10-16T03:44:07;4.90;;;2.90;;
52414;SDS011;38340;52.964;6.086;2022-10-16T03:46:33;5.50;;;2.50;;
52414;SDS011;38340;52.964;6.086;2022-10-16T03:48:59;4.25;;;2.17;;
52414;SDS011;38340;52.964;6.086;2022-10-16T03:51:24;5.28;;;2.83;;
52414;SDS011;38340;52.964;6.086;2022-10-16T03:53:50;5.32;;;2.50;;
52414;SDS011;38340;52.964;6.086;2022-10-16T03:56:16;5.90;;;2.38;;
52414;SDS011;38340;52.964;6.086;2022-10-16T03:58:41;4.10;;;2.55;;
52414;SDS011;38340;52.964;6.086;2022-10-16T04:01:07;4.78;;;2.53;;
52414;SDS011;38340;52.964;6.086;2022-10-16T04:03:33;6.07;;;2.60;;
52414;SDS011;38340;52.964;6.086;2022-10-16T04:05:58;9.07;;;2.40;;
52414;SDS011;38340;52.964;6.086;2022-10-16T04:08:24;9.02;;;3.05;;
52414;SDS011;38340;52.964;6.086;2022-10-16T04:10:50;6.82;;;2.65;;
52414;SDS011;38340;52.964;6.086;2022-10-16T04:13:16;5.78;;;2.90;;
52414;SDS011;38340;52.964;6.086;2022-10-16T04:15:41;4.15;;;2.78;;
52414;SDS011;38340;52.964;6.086;2022-10-16T04:18:09;4.38;;;2.63;;
52414;SDS011;38340;52.964;6.086;2022-10-16T04:20:35;3.97;;;2.65;;
52414;SDS011;38340;52.964;6.086;2022-10-16T04:23:00;9.30;;;2.72;;
52414;SDS011;38340;52.964;6.086;2022-10-16T04:25:26;4.50;;;2.85;;
52414;SDS011;38340;52.964;6.086;2022-10-16T04:27:52;4.05;;;2.65;;
52414;SDS011;38340;52.964;6.086;2022-10-16T04:30:19;6.55;;;3.05;;
52414;SDS011;38340;52.964;6.086;2022-10-16T04:32:48;6.65;;;3.45;;
52414;SDS011;38340;52.964;6.086;2022-10-16T04:35:15;5.25;;;3.15;;
52414;SDS011;38340;52.964;6.086;2022-10-16T04:37:41;6.13;;;3.70;;
52414;SDS011;38340;52.964;6.086;2022-10-16T04:40:06;5.15;;;3.17;;
52414;SDS011;38340;52.964;6.086;2022-10-16T04:42:32;5.68;;;3.00;;
52414;SDS011;38340;52.964;6.086;2022-10-16T04:44:58;4.40;;;3.25;;
52414;SDS011;38340;52.964;6.086;2022-10-16T04:47:24;4.35;;;3.08;;
52414;SDS011;38340;52.964;6.086;2022-10-16T04:49:49;7.22;;;3.50;;
52414;SDS011;38340;52.964;6.086;2022-10-16T04:52:15;9.88;;;3.63;;
52414;SDS011;38340;52.964;6.086;2022-10-16T04:54:41;6.65;;;3.75;;
52414;SDS011;38340;52.964;6.086;2022-10-16T04:57:07;7.07;;;3.70;;
52414;SDS011;38340;52.964;6.086;2022-10-16T04:59:32;5.50;;;3.55;;
52414;SDS011;38340;52.964;6.086;2022-10-16T05:01:58;12.00;;;4.03;;
52414;SDS011;38340;52.964;6.086;2022-10-16T05:04:24;8.90;;;3.65;;
52414;SDS011;38340;52.964;6.086;2022-10-16T05:06:49;11.02;;;4.00;;
52414;SDS011;38340;52.964;6.086;2022-10-16T05:09:15;6.90;;;4.00;;
52414;SDS011;38340;52.964;6.086;2022-10-16T05:11:41;7.38;;;3.55;;
52414;SDS011;38340;52.964;6.086;2022-10-16T05:14:06;6.30;;;3.50;;
52414;SDS011;38340;52.964;6.086;2022-10-16T05:16:32;5.90;;;3.30;;
52414;SDS011;38340;52.964;6.086;2022-10-16T05:18:57;7.32;;;3.53;;
52414;SDS011;38340;52.964;6.086;2022-10-16T05:21:23;7.00;;;3.20;;
52414;SDS011;38340;52.964;6.086;2022-10-16T05:23:49;6.45;;;3.38;;
52414;SDS011;38340;52.964;6.086;2022-10-16T05:26:14;10.02;;;4.10;;
52414;SDS011;38340;52.964;6.086;2022-10-16T05:28:40;6.65;;;3.78;;
52414;SDS011;38340;52.964;6.086;2022-10-16T05:31:07;5.38;;;3.47;;
52414;SDS011;38340;52.964;6.086;2022-10-16T05:33:33;6.20;;;3.40;;
52414;SDS011;38340;52.964;6.086;2022-10-16T05:36:03;7.40;;;3.72;;
52414;SDS011;38340;52.964;6.086;2022-10-16T05:38:31;9.25;;;4.00;;
52414;SDS011;38340;52.964;6.086;2022-10-16T05:40:56;4.95;;;3.58;;
52414;SDS011;38340;52.964;6.086;2022-10-16T05:43:23;5.35;;;3.70;;
52414;SDS011;38340;52.964;6.086;2022-10-16T05:45:59;5.70;;;3.72;;
52414;SDS011;38340;52.964;6.086;2022-10-16T05:48:27;6.47;;;4.00;;
52414;SDS011;38340;52.964;6.086;2022-10-16T05:50:59;7.15;;;4.22;;
52414;SDS011;38340;52.964;6.086;2022-10-16T05:53:28;8.32;;;4.00;;
52414;SDS011;38340;52.964;6.086;2022-10-16T05:55:55;5.35;;;3.80;;
52414;SDS011;38340;52.964;6.086;2022-10-16T05:58:21;7.95;;;3.97;;
52414;SDS011;38340;52.964;6.086;2022-10-16T06:00:54;9.85;;;3.92;;
52414;SDS011;38340;52.964;6.086;2022-10-16T06:03:21;7.00;;;4.45;;
52414;SDS011;38340;52.964;6.086;2022-10-16T06:05:47;7.90;;;4.25;;
52414;SDS011;38340;52.964;6.086;2022-10-16T06:08:13;9.00;;;4.20;;
52414;SDS011;38340;52.964;6.086;2022-10-16T06:10:39;10.93;;;4.35;;
52414;SDS011;38340;52.964;6.086;2022-10-16T06:13:04;7.63;;;3.95;;
52414;SDS011;38340;52.964;6.086;2022-10-16T06:15:30;8.63;;;4.07;;
52414;SDS011;38340;52.964;6.086;2022-10-16T06:17:56;10.05;;;4.00;;
52414;SDS011;38340;52.964;6.086;2022-10-16T06:20:21;8.20;;;3.70;;
52414;SDS011;38340;52.964;6.086;2022-10-16T06:22:47;7.60;;;3.88;;
52414;SDS011;38340;52.964;6.086;2022-10-16T06:25:13;6.75;;;3.80;;
52414;SDS011;38340;52.964;6.086;2022-10-16T06:27:41;7.50;;;4.20;;
52414;SDS011;38340;52.964;6.086;2022-10-16T06:30:07;9.70;;;4.63;;
52414;SDS011;38340;52.964;6.086;2022-10-16T06:32:33;8.18;;;3.90;;
52414;SDS011;38340;52.964;6.086;2022-10-16T06:34:59;9.82;;;4.03;;
52414;SDS011;38340;52.964;6.086;2022-10-16T06:37:24;5.70;;;3.67;;
52414;SDS011;38340;52.964;6.086;2022-10-16T06:39:50;4.65;;;3.60;;
52414;SDS011;38340;52.964;6.086;2022-10-16T06:42:19;7.43;;;3.35;;
52414;SDS011;38340;52.964;6.086;2022-10-16T06:44:45;7.93;;;4.07;;
52414;SDS011;38340;52.964;6.086;2022-10-16T06:47:11;7.88;;;3.67;;
52414;SDS011;38340;52.964;6.086;2022-10-16T06:49:36;7.63;;;3.85;;
52414;SDS011;38340;52.964;6.086;2022-10-16T06:52:02;9.68;;;4.10;;
52414;SDS011;38340;52.964;6.086;2022-10-16T06:54:28;5.97;;;3.95;;
52414;SDS011;38340;52.964;6.086;2022-10-16T06:56:54;5.90;;;4.18;;
52414;SDS011;38340;52.964;6.086;2022-10-16T06:59:20;6.20;;;4.00;;
52414;SDS011;38340;52.964;6.086;2022-10-16T07:01:46;6.47;;;3.50;;
52414;SDS011;38340;52.964;6.086;2022-10-16T07:04:12;5.88;;;3.90;;
52414;SDS011;38340;52.964;6.086;2022-10-16T07:06:38;6.20;;;3.55;;
52414;SDS011;38340;52.964;6.086;2022-10-16T07:09:05;6.63;;;3.50;;
52414;SDS011;38340;52.964;6.086;2022-10-16T07:11:33;6.25;;;3.20;;
52414;SDS011;38340;52.964;6.086;2022-10-16T07:14:00;9.27;;;4.00;;
52414;SDS011;38340;52.964;6.086;2022-10-16T07:16:27;8.15;;;3.88;;
52414;SDS011;38340;52.964;6.086;2022-10-16T07:18:58;7.22;;;3.40;;
52414;SDS011;38340;52.964;6.086;2022-10-16T07:21:26;5.75;;;3.35;;
52414;SDS011;38340;52.964;6.086;2022-10-16T07:23:57;6.88;;;3.88;;
52414;SDS011;38340;52.964;6.086;2022-10-16T07:26:25;8.40;;;3.67;;
52414;SDS011;38340;52.964;6.086;2022-10-16T07:28:52;7.03;;;3.40;;
52414;SDS011;38340;52.964;6.086;2022-10-16T07:31:18;6.38;;;3.63;;
52414;SDS011;38340;52.964;6.086;2022-10-16T07:33:44;7.03;;;3.40;;
52414;SDS011;38340;52.964;6.086;2022-10-16T07:36:13;7.82;;;3.17;;
52414;SDS011;38340;52.964;6.086;2022-10-16T07:38:41;5.68;;;3.33;;
52414;SDS011;38340;52.964;6.086;2022-10-16T07:41:08;5.38;;;3.38;;
52414;SDS011;38340;52.964;6.086;2022-10-16T07:43:36;7.45;;;3.67;;
52414;SDS011;38340;52.964;6.086;2022-10-16T07:46:02;6.60;;;3.55;;
52414;SDS011;38340;52.964;6.086;2022-10-16T07:48:29;5.68;;;3.20;;
52414;SDS011;38340;52.964;6.086;2022-10-16T07:51:03;9.68;;;3.42;;
52414;SDS011;38340;52.964;6.086;2022-10-16T07:53:30;7.87;;;3.60;;
52414;SDS011;38340;52.964;6.086;2022-10-16T07:55:57;4.97;;;2.72;;
52414;SDS011;38340;52.964;6.086;2022-10-16T07:58:23;4.75;;;2.60;;
52414;SDS011;38340;52.964;6.086;2022-10-16T08:00:49;5.18;;;2.50;;
52414;SDS011;38340;52.964;6.086;2022-10-16T08:03:15;6.43;;;2.45;;
52414;SDS011;38340;52.964;6.086;2022-10-16T08:05:40;7.40;;;2.70;;
52414;SDS011;38340;52.964;6.086;2022-10-16T08:08:06;8.73;;;2.83;;
52414;SDS011;38340;52.964;6.086;2022-10-16T08:10:36;4.05;;;2.30;;
52414;SDS011;38340;52.964;6.086;2022-10-16T08:13:02;6.63;;;3.00;;
52414;SDS011;38340;52.964;6.086;2022-10-16T08:15:27;4.88;;;2.20;;
52414;SDS011;38340;52.964;6.086;2022-10-16T08:17:57;5.68;;;2.67;;
52414;SDS011;38340;52.964;6.086;2022-10-16T08:20:24;4.95;;;2.65;;
52414;SDS011;38340;52.964;6.086;2022-10-16T08:22:50;12.90;;;2.55;;
52414;SDS011;38340;52.964;6.086;2022-10-16T08:25:16;7.05;;;2.20;;
52414;SDS011;38340;52.964;6.086;2022-10-16T08:27:42;4.32;;;2.10;;
52414;SDS011;38340;52.964;6.086;2022-10-16T08:30:07;6.82;;;2.25;;
52414;SDS011;38340;52.964;6.086;2022-10-16T08:32:34;4.60;;;2.30;;
52414;SDS011;38340;52.964;6.086;2022-10-16T08:34:59;4.35;;;1.85;;
52414;SDS011;38340;52.964;6.086;2022-10-16T08:37:29;4.68;;;2.08;;
52414;SDS011;38340;52.964;6.086;2022-10-16T08:39:56;8.10;;;2.83;;
52414;SDS011;38340;52.964;6.086;2022-10-16T08:42:25;6.50;;;3.13;;
52414;SDS011;38340;52.964;6.086;2022-10-16T08:48:00;5.80;;;2.78;;
52414;SDS011;38340;52.964;6.086;2022-10-16T08:50:31;9.48;;;2.50;;
52414;SDS011;38340;52.964;6.086;2022-10-16T08:53:01;6.90;;;2.60;;
52414;SDS011;38340;52.964;6.086;2022-10-16T08:55:46;9.68;;;2.63;;
52414;SDS011;38340;52.964;6.086;2022-10-16T08:58:18;5.07;;;2.35;;
52414;SDS011;38340;52.964;6.086;2022-10-16T09:00:47;6.90;;;2.45;;
52414;SDS011;38340;52.964;6.086;2022-10-16T09:06:25;8.02;;;2.70;;
52414;SDS011;38340;52.964;6.086;2022-10-16T09:12:07;8.93;;;3.28;;
52414;SDS011;38340;52.964;6.086;2022-10-16T09:19:56;11.57;;;2.65;;
52414;SDS011;38340;52.964;6.086;2022-10-16T09:22:26;6.68;;;2.53;;
52414;SDS011;38340;52.964;6.086;2022-10-16T09:24:54;7.03;;;2.53;;
52414;SDS011;38340;52.964;6.086;2022-10-16T09:27:24;10.35;;;2.88;;
52414;SDS011;38340;52.964;6.086;2022-10-16T09:29:51;12.80;;;3.28;;
52414;SDS011;38340;52.964;6.086;2022-10-16T09:32:18;9.13;;;2.78;;
52414;SDS011;38340;52.964;6.086;2022-10-16T09:34:47;11.98;;;2.72;;
52414;SDS011;38340;52.964;6.086;2022-10-16T09:37:20;9.13;;;2.63;;
52414;SDS011;38340;52.964;6.086;2022-10-16T09:39:51;15.75;;;3.20;;
52414;SDS011;38340;52.964;6.086;2022-10-16T09:42:18;12.88;;;3.22;;
52414;SDS011;38340;52.964;6.086;2022-10-16T09:45:20;12.95;;;3.45;;
52414;SDS011;38340;52.964;6.086;2022-10-16T09:47:47;8.27;;;2.63;;
52414;SDS011;38340;52.964;6.086;2022-10-16T09:50:24;8.02;;;2.60;;
52414;SDS011;38340;52.964;6.086;2022-10-16T09:55:47;8.65;;;2.83;;
52414;SDS011;38340;52.964;6.086;2022-10-16T09:58:16;8.18;;;2.78;;
52414;SDS011;38340;52.964;6.086;2022-10-16T10:00:48;8.50;;;2.92;;
52414;SDS011;38340;52.964;6.086;2022-10-16T10:03:30;10.80;;;2.73;;
52414;SDS011;38340;52.964;6.086;2022-10-16T10:06:06;11.87;;;3.00;;
52414;SDS011;38340;52.964;6.086;2022-10-16T10:08:52;10.38;;;2.83;;
52414;SDS011;38340;52.964;6.086;2022-10-16T10:11:35;8.98;;;3.08;;
52414;SDS011;38340;52.964;6.086;2022-10-16T10:19:38;9.82;;;2.72;;
52414;SDS011;38340;52.964;6.086;2022-10-16T10:24:53;12.32;;;3.25;;
52414;SDS011;38340;52.964;6.086;2022-10-16T10:30:13;9.40;;;2.95;;
52414;SDS011;38340;52.964;6.086;2022-10-16T10:38:31;17.52;;;3.42;;
52414;SDS011;38340;52.964;6.086;2022-10-16T10:41:15;9.80;;;2.85;;
52414;SDS011;38340;52.964;6.086;2022-10-16T10:46:32;11.52;;;3.05;;
52414;SDS011;38340;52.964;6.086;2022-10-16T10:56:57;9.15;;;2.70;;
52414;SDS011;38340;52.964;6.086;2022-10-16T11:01:59;8.32;;;2.80;;
52414;SDS011;38340;52.964;6.086;2022-10-16T11:04:41;10.10;;;3.30;;
52414;SDS011;38340;52.964;6.086;2022-10-16T11:07:42;13.65;;;3.10;;
52414;SDS011;38340;52.964;6.086;2022-10-16T11:10:16;9.40;;;3.15;;
52414;SDS011;38340;52.964;6.086;2022-10-16T11:12:48;8.52;;;2.92;;
52414;SDS011;38340;52.964;6.086;2022-10-16T11:15:30;8.80;;;3.28;;
52414;SDS011;38340;52.964;6.086;2022-10-16T11:18:06;9.05;;;2.95;;
52414;SDS011;38340;52.964;6.086;2022-10-16T11:20:42;11.45;;;2.60;;
52414;SDS011;38340;52.964;6.086;2022-10-16T11:23:15;9.23;;;2.60;;
52414;SDS011;38340;52.964;6.086;2022-10-16T11:25:42;9.02;;;3.38;;
52414;SDS011;38340;52.964;6.086;2022-10-16T11:36:14;11.73;;;2.60;;
52414;SDS011;38340;52.964;6.086;2022-10-16T11:39:04;8.15;;;2.92;;
52414;SDS011;38340;52.964;6.086;2022-10-16T11:41:42;11.35;;;3.55;;
52414;SDS011;38340;52.964;6.086;2022-10-16T11:46:58;12.13;;;2.65;;
52414;SDS011;38340;52.964;6.086;2022-10-16T11:49:44;10.13;;;2.92;;
52414;SDS011;38340;52.964;6.086;2022-10-16T11:57:20;10.52;;;2.72;;
52414;SDS011;38340;52.964;6.086;2022-10-16T12:00:01;10.38;;;2.63;;
52414;SDS011;38340;52.964;6.086;2022-10-16T12:02:56;14.30;;;3.05;;
52414;SDS011;38340;52.964;6.086;2022-10-16T12:08:14;12.88;;;3.05;;
52414;SDS011;38340;52.964;6.086;2022-10-16T12:10:42;12.73;;;2.65;;
52414;SDS011;38340;52.964;6.086;2022-10-16T12:13:30;9.93;;;2.85;;
52414;SDS011;38340;52.964;6.086;2022-10-16T12:16:18;8.52;;;2.90;;
52414;SDS011;38340;52.964;6.086;2022-10-16T12:18:47;7.65;;;2.65;;
52414;SDS011;38340;52.964;6.086;2022-10-16T12:21:14;14.02;;;3.38;;
52414;SDS011;38340;52.964;6.086;2022-10-16T12:23:51;12.50;;;3.28;;
52414;SDS011;38340;52.964;6.086;2022-10-16T12:26:26;9.43;;;2.67;;
52414;SDS011;38340;52.964;6.086;2022-10-16T12:28:54;11.38;;;3.47;;
52414;SDS011;38340;52.964;6.086;2022-10-16T12:31:21;10.20;;;2.85;;
52414;SDS011;38340;52.964;6.086;2022-10-16T12:33:57;11.80;;;2.95;;
52414;SDS011;38340;52.964;6.086;2022-10-16T12:36:28;13.43;;;2.58;;
52414;SDS011;38340;52.964;6.086;2022-10-16T12:38:57;15.15;;;2.75;;
52414;SDS011;38340;52.964;6.086;2022-10-16T12:41:25;12.48;;;3.17;;
52414;SDS011;38340;52.964;6.086;2022-10-16T12:43:52;8.95;;;2.40;;
52414;SDS011;38340;52.964;6.086;2022-10-16T12:48:44;8.27;;;2.50;;
52414;SDS011;38340;52.964;6.086;2022-10-16T12:51:12;13.80;;;3.20;;
52414;SDS011;38340;52.964;6.086;2022-10-16T12:53:57;11.55;;;3.30;;
52414;SDS011;38340;52.964;6.086;2022-10-16T12:56:34;11.30;;;3.42;;
52414;SDS011;38340;52.964;6.086;2022-10-16T13:15:38;9.63;;;2.70;;
52414;SDS011;38340;52.964;6.086;2022-10-16T13:21:03;12.80;;;3.67;;
52414;SDS011;38340;52.964;6.086;2022-10-16T13:23:34;13.90;;;2.92;;
52414;SDS011;38340;52.964;6.086;2022-10-16T13:26:29;9.32;;;3.00;;
52414;SDS011;38340;52.964;6.086;2022-10-16T13:29:14;7.80;;;2.78;;
52414;SDS011;38340;52.964;6.086;2022-10-16T13:31:41;13.25;;;2.85;;
52414;SDS011;38340;52.964;6.086;2022-10-16T13:34:13;12.98;;;3.03;;
52414;SDS011;38340;52.964;6.086;2022-10-16T13:36:45;17.70;;;3.92;;
52414;SDS011;38340;52.964;6.086;2022-10-16T13:41:47;13.45;;;3.55;;
52414;SDS011;38340;52.964;6.086;2022-10-16T13:44:42;14.07;;;3.38;;
52414;SDS011;38340;52.964;6.086;2022-10-16T13:47:15;14.05;;;3.33;;
52414;SDS011;38340;52.964;6.086;2022-10-16T13:49:42;9.52;;;2.90;;
52414;SDS011;38340;52.964;6.086;2022-10-16T13:52:18;13.23;;;3.17;;
52414;SDS011;38340;52.964;6.086;2022-10-16T13:54:45;10.55;;;2.75;;
52414;SDS011;38340;52.964;6.086;2022-10-16T13:57:13;10.80;;;3.20;;
52414;SDS011;38340;52.964;6.086;2022-10-16T13:59:40;10.07;;;3.03;;
52414;SDS011;38340;52.964;6.086;2022-10-16T14:04:52;12.43;;;3.00;;
52414;SDS011;38340;52.964;6.086;2022-10-16T14:07:26;10.10;;;3.03;;
52414;SDS011;38340;52.964;6.086;2022-10-16T14:09:54;12.27;;;2.78;;
52414;SDS011;38340;52.964;6.086;2022-10-16T14:12:21;12.55;;;3.15;;
52414;SDS011;38340;52.964;6.086;2022-10-16T14:14:51;12.07;;;2.35;;
52414;SDS011;38340;52.964;6.086;2022-10-16T14:17:28;9.20;;;2.95;;
52414;SDS011;38340;52.964;6.086;2022-10-16T14:19:58;13.00;;;3.30;;
52414;SDS011;38340;52.964;6.086;2022-10-16T14:22:32;10.40;;;2.95;;
52414;SDS011;38340;52.964;6.086;2022-10-16T14:25:24;10.70;;;2.80;;
52414;SDS011;38340;52.964;6.086;2022-10-16T14:28:36;11.13;;;3.17;;
52414;SDS011;38340;52.964;6.086;2022-10-16T14:30:53;9.45;;;2.92;;
52414;SDS011;38340;52.964;6.086;2022-10-16T14:36:04;11.45;;;4.45;;
52414;SDS011;38340;52.964;6.086;2022-10-16T14:38:39;14.32;;;2.70;;
52414;SDS011;38340;52.964;6.086;2022-10-16T14:41:06;11.82;;;2.60;;
52414;SDS011;38340;52.964;6.086;2022-10-16T14:43:39;12.05;;;3.03;;
52414;SDS011;38340;52.964;6.086;2022-10-16T14:46:16;11.77;;;2.53;;
52414;SDS011;38340;52.964;6.086;2022-10-16T14:48:46;7.55;;;2.75;;
52414;SDS011;38340;52.964;6.086;2022-10-16T14:51:15;12.40;;;2.50;;
52414;SDS011;38340;52.964;6.086;2022-10-16T14:53:42;12.88;;;2.50;;
52414;SDS011;38340;52.964;6.086;2022-10-16T14:56:08;9.43;;;2.50;;
52414;SDS011;38340;52.964;6.086;2022-10-16T14:58:40;10.57;;;3.20;;
52414;SDS011;38340;52.964;6.086;2022-10-16T15:01:07;13.85;;;3.08;;
52414;SDS011;38340;52.964;6.086;2022-10-16T15:03:36;11.82;;;3.13;;
52414;SDS011;38340;52.964;6.086;2022-10-16T15:06:02;8.50;;;2.78;;
52414;SDS011;38340;52.964;6.086;2022-10-16T15:08:27;11.77;;;3.35;;
52414;SDS011;38340;52.964;6.086;2022-10-16T15:10:53;25.70;;;3.63;;
52414;SDS011;38340;52.964;6.086;2022-10-16T15:13:19;9.30;;;2.47;;
52414;SDS011;38340;52.964;6.086;2022-10-16T15:15:45;10.00;;;2.35;;
52414;SDS011;38340;52.964;6.086;2022-10-16T15:18:12;10.63;;;2.55;;
52414;SDS011;38340;52.964;6.086;2022-10-16T15:20:39;9.18;;;2.63;;
52414;SDS011;38340;52.964;6.086;2022-10-16T15:23:13;9.68;;;2.47;;
52414;SDS011;38340;52.964;6.086;2022-10-16T15:25:47;11.48;;;2.33;;
52414;SDS011;38340;52.964;6.086;2022-10-16T15:28:17;10.90;;;2.80;;
52414;SDS011;38340;52.964;6.086;2022-10-16T15:30:44;8.40;;;2.40;;
52414;SDS011;38340;52.964;6.086;2022-10-16T15:33:20;10.63;;;2.38;;
52414;SDS011;38340;52.964;6.086;2022-10-16T15:35:52;12.63;;;3.08;;
52414;SDS011;38340;52.964;6.086;2022-10-16T15:38:19;7.53;;;2.42;;
52414;SDS011;38340;52.964;6.086;2022-10-16T15:40:47;8.95;;;2.63;;
52414;SDS011;38340;52.964;6.086;2022-10-16T15:43:14;7.78;;;2.47;;
52414;SDS011;38340;52.964;6.086;2022-10-16T15:45:39;10.43;;;2.22;;
52414;SDS011;38340;52.964;6.086;2022-10-16T15:48:05;8.98;;;2.45;;
52414;SDS011;38340;52.964;6.086;2022-10-16T15:50:31;9.50;;;2.65;;
52414;SDS011;38340;52.964;6.086;2022-10-16T15:52:57;14.23;;;3.53;;
52414;SDS011;38340;52.964;6.086;2022-10-16T15:55:23;11.10;;;2.30;;
52414;SDS011;38340;52.964;6.086;2022-10-16T15:57:49;11.63;;;2.72;;
52414;SDS011;38340;52.964;6.086;2022-10-16T16:00:16;11.32;;;3.08;;
52414;SDS011;38340;52.964;6.086;2022-10-16T16:02:49;7.38;;;2.30;;
52414;SDS011;38340;52.964;6.086;2022-10-16T16:05:16;9.70;;;2.75;;
52414;SDS011;38340;52.964;6.086;2022-10-16T16:07:42;12.52;;;3.63;;
52414;SDS011;38340;52.964;6.086;2022-10-16T16:10:09;13.10;;;3.88;;
52414;SDS011;38340;52.964;6.086;2022-10-16T16:12:36;12.05;;;3.00;;
52414;SDS011;38340;52.964;6.086;2022-10-16T16:15:03;10.52;;;2.85;;
52414;SDS011;38340;52.964;6.086;2022-10-16T16:17:30;12.07;;;2.58;;
52414;SDS011;38340;52.964;6.086;2022-10-16T16:19:57;8.32;;;2.90;;
52414;SDS011;38340;52.964;6.086;2022-10-16T16:22:23;6.22;;;2.30;;
52414;SDS011;38340;52.964;6.086;2022-10-16T16:24:48;7.63;;;2.35;;
52414;SDS011;38340;52.964;6.086;2022-10-16T16:27:14;9.80;;;2.47;;
52414;SDS011;38340;52.964;6.086;2022-10-16T16:29:40;7.13;;;2.30;;
52414;SDS011;38340;52.964;6.086;2022-10-16T16:32:06;13.15;;;2.65;;
52414;SDS011;38340;52.964;6.086;2022-10-16T16:34:32;11.65;;;3.22;;
52414;SDS011;38340;52.964;6.086;2022-10-16T16:36:58;6.65;;;2.33;;
52414;SDS011;38340;52.964;6.086;2022-10-16T16:39:23;8.15;;;2.50;;
52414;SDS011;38340;52.964;6.086;2022-10-16T16:41:50;9.00;;;2.70;;